Time;durP1;ratioP1;P1;durP2;ratioP2;P2;SDS_P1;SDS_P2;PMS_P1;PMS_P2;Temp;Humidity;BMP_temperature;BMP_pressure;BME280_temperature;BME280_humidity;BME280_pressure;Samples;Min_cycle;Max_cycle;Signal;HPM_P1;HPM_P2
2024/01/01 00:01:39;;;;;;;0.00;0.00;;;;;;;6.06;100.00;97946.50;5134409;27;20708;-52
2024/01/01 00:04:29;;;;;;;0.00;0.00;;;;;;;5.88;100.00;97950.28;5136001;27;20313;-51
2024/01/01 00:07:16;;;;;;;0.00;0.00;;;;;;;5.90;100.00;97951.94;5135842;27;20235;-52
2024/01/01 00:10:04;;;;;;;0.10;0.10;;;;;;;5.88;100.00;97959.00;5135929;27;20244;-52
2024/01/01 00:12:52;;;;;;;0.00;0.00;;;;;;;5.93;100.00;97962.22;5135141;27;20186;-52
2024/01/01 00:15:39;;;;;;;0.10;0.10;;;;;;;5.95;100.00;97962.13;5134331;27;20201;-52
2024/01/01 00:18:27;;;;;;;0.10;0.10;;;;;;;5.96;100.00;97966.44;5135772;27;20271;-51
2024/01/01 00:21:14;;;;;;;0.00;0.00;;;;;;;5.96;100.00;97963.81;5135410;27;20221;-52
2024/01/01 00:24:02;;;;;;;0.00;0.00;;;;;;;5.90;100.00;97959.81;5135463;27;20548;-52
2024/01/01 00:26:49;;;;;;;0.00;0.00;;;;;;;5.86;100.00;97967.94;5135739;27;20202;-51
2024/01/01 00:29:36;;;;;;;0.10;0.10;;;;;;;5.71;100.00;97980.28;5135544;27;20197;-51
2024/01/01 00:32:23;;;;;;;0.00;0.00;;;;;;;5.86;100.00;97984.53;5133842;27;20284;-52
2024/01/01 00:35:11;;;;;;;0.10;0.10;;;;;;;6.02;100.00;97990.53;5135320;27;20189;-52
2024/01/01 00:38:00;;;;;;;0.00;0.00;;;;;;;5.91;100.00;97992.19;5135350;27;20182;-52
2024/01/01 00:40:47;;;;;;;0.00;0.00;;;;;;;6.18;100.00;97989.56;5133968;27;20285;-52
2024/01/01 00:43:34;;;;;;;0.00;0.00;;;;;;;6.25;100.00;97981.16;5135170;27;20192;-51
2024/01/01 00:46:21;;;;;;;0.00;0.00;;;;;;;6.38;100.00;97981.22;5133741;27;20193;-52
2024/01/01 00:49:08;;;;;;;0.00;0.00;;;;;;;6.49;100.00;97968.19;5134965;27;20197;-52
2024/01/01 00:51:57;;;;;;;0.10;0.10;;;;;;;6.56;100.00;97981.75;5135131;27;20311;-51
2024/01/01 00:54:44;;;;;;;0.00;0.00;;;;;;;6.63;100.00;97966.41;5135043;27;20213;-51
2024/01/01 00:57:31;;;;;;;0.00;0.00;;;;;;;6.66;100.00;97972.34;5133849;27;20185;-52
2024/01/01 01:00:18;;;;;;;0.00;0.00;;;;;;;6.63;100.00;97975.16;5134762;27;20221;-52
2024/01/01 01:03:05;;;;;;;0.10;0.10;;;;;;;6.63;100.00;97977.78;5133911;27;20197;-52
2024/01/01 01:05:52;;;;;;;0.03;0.03;;;;;;;6.62;100.00;97978.72;5133709;27;20189;-51
2024/01/01 01:08:40;;;;;;;0.00;0.00;;;;;;;6.54;100.00;97978.38;5134724;27;20189;-51
2024/01/01 01:11:27;;;;;;;0.10;0.10;;;;;;;6.51;100.00;97973.34;5133733;27;20198;-52
2024/01/01 01:14:14;;;;;;;0.10;0.10;;;;;;;6.53;100.00;97971.44;5134504;27;20182;-51
2024/01/01 01:17:01;;;;;;;0.00;0.00;;;;;;;6.56;100.00;97987.03;5132329;27;20219;-52
2024/01/01 01:19:48;;;;;;;0.00;0.00;;;;;;;6.64;100.00;97989.97;5134327;27;20228;-52
2024/01/01 01:22:35;;;;;;;0.00;0.00;;;;;;;6.79;100.00;97986.34;5134365;27;20283;-51
2024/01/01 01:25:23;;;;;;;0.00;0.00;;;;;;;6.94;100.00;97989.69;5134154;27;20192;-52
2024/01/01 01:28:10;;;;;;;0.00;0.00;;;;;;;6.91;100.00;97981.19;5134326;27;20205;-52
2024/01/01 01:30:57;;;;;;;0.00;0.00;;;;;;;6.94;100.00;97987.06;5132927;27;20194;-53
2024/01/01 01:33:44;;;;;;;0.10;0.10;;;;;;;6.91;100.00;97987.28;5133346;27;20193;-52
2024/01/01 01:36:30;;;;;;;0.07;0.07;;;;;;;6.94;100.00;97991.50;5134345;27;20196;-52
2024/01/01 01:39:18;;;;;;;0.00;0.00;;;;;;;6.89;100.00;97990.03;5133165;27;20194;-53
2024/01/01 01:42:08;;;;;;;0.00;0.00;;;;;;;6.94;100.00;98002.03;5132964;27;20220;-53
2024/01/01 01:44:55;;;;;;;0.00;0.00;;;;;;;7.00;100.00;97997.19;5133197;27;20193;-53
2024/01/01 01:47:42;;;;;;;0.00;0.00;;;;;;;7.02;100.00;97997.09;5132683;27;20197;-52
2024/01/01 01:50:29;;;;;;;0.00;0.00;;;;;;;6.83;100.00;97990.44;5134215;27;20184;-52
2024/01/01 01:53:23;;;;;;;0.00;0.00;;;;;;;6.85;100.00;97979.78;5134152;27;20278;-53
2024/01/01 01:56:10;;;;;;;0.10;0.10;;;;;;;6.74;100.00;97982.31;5134066;27;20231;-53
2024/01/01 01:58:59;;;;;;;0.00;0.00;;;;;;;6.86;100.00;97984.16;5132995;28;20201;-53
2024/01/01 02:01:46;;;;;;;0.00;0.00;;;;;;;6.81;100.00;97994.97;5131374;28;20216;-53
2024/01/01 02:04:32;;;;;;;0.00;0.00;;;;;;;6.88;100.00;97982.25;5132989;28;20193;-53
2024/01/01 02:07:20;;;;;;;0.00;0.00;;;;;;;6.82;100.00;97982.66;5132905;28;20232;-53
2024/01/01 02:10:08;;;;;;;0.00;0.00;;;;;;;6.93;100.00;97981.91;5133956;28;20193;-53
2024/01/01 02:12:55;;;;;;;0.00;0.00;;;;;;;6.90;100.00;97985.59;5132883;28;20188;-53
2024/01/01 02:15:43;;;;;;;0.10;0.10;;;;;;;6.84;100.00;97981.59;5131530;28;20205;-53
2024/01/01 02:18:30;;;;;;;0.10;0.10;;;;;;;6.81;100.00;97976.53;5133680;28;20209;-53
2024/01/01 02:21:17;;;;;;;0.00;0.00;;;;;;;6.76;100.00;97976.03;5133568;28;20781;-53
2024/01/01 02:24:06;;;;;;;0.07;0.07;;;;;;;6.83;100.00;97976.44;5133739;28;20202;-53
2024/01/01 02:26:52;;;;;;;0.10;0.10;;;;;;;6.88;100.00;97980.44;5132686;28;20295;-53
2024/01/01 02:29:39;;;;;;;0.10;0.10;;;;;;;7.05;100.00;97974.03;5133607;28;20190;-53
2024/01/01 02:32:26;;;;;;;0.10;0.10;;;;;;;6.91;100.00;97978.56;5131245;28;20753;-53
2024/01/01 02:35:13;;;;;;;0.00;0.00;;;;;;;7.03;100.00;97981.19;5133653;28;20710;-53
2024/01/01 02:38:04;;;;;;;0.00;0.00;;;;;;;7.05;100.00;97975.84;5136618;27;20195;-52
2024/01/01 02:40:52;;;;;;;0.03;0.03;;;;;;;6.92;100.00;97967.91;5136628;27;20235;-52
2024/01/01 02:43:39;;;;;;;0.10;0.10;;;;;;;6.91;100.00;97965.41;5137492;27;20255;-52
2024/01/01 02:46:26;;;;;;;0.00;0.00;;;;;;;6.83;100.00;97969.38;5136252;27;20189;-53
2024/01/01 02:49:13;;;;;;;0.00;0.00;;;;;;;6.73;100.00;97975.38;5137538;27;20198;-53
2024/01/01 02:52:00;;;;;;;0.00;0.00;;;;;;;6.76;100.00;97970.75;5136263;27;20200;-53
2024/01/01 02:54:47;;;;;;;0.00;0.00;;;;;;;6.73;100.00;97970.09;5137273;27;20278;-53
2024/01/01 02:57:35;;;;;;;0.10;0.10;;;;;;;6.83;100.00;97979.91;5137288;27;20209;-53
2024/01/01 03:00:22;;;;;;;0.00;0.00;;;;;;;6.68;100.00;97975.69;5137215;27;20300;-53
2024/01/01 03:03:09;;;;;;;0.00;0.00;;;;;;;6.79;100.00;97988.13;5136886;27;20225;-52
2024/01/01 03:05:56;;;;;;;0.00;0.00;;;;;;;6.69;100.00;97990.53;5136200;27;20318;-53
2024/01/01 03:08:43;;;;;;;0.00;0.00;;;;;;;6.73;100.00;97991.16;5136638;27;20263;-53
2024/01/01 03:11:30;;;;;;;0.00;0.00;;;;;;;6.63;100.00;97983.03;5137181;27;20193;-52
2024/01/01 03:14:18;;;;;;;0.10;0.10;;;;;;;6.45;100.00;97992.16;5136076;27;20197;-53
2024/01/01 03:17:05;;;;;;;0.00;0.00;;;;;;;6.46;100.00;97999.94;5135233;27;20197;-52
2024/01/01 03:19:52;;;;;;;0.07;0.07;;;;;;;6.51;100.00;97997.84;5135691;27;20221;-53
2024/01/01 03:22:39;;;;;;;0.10;0.10;;;;;;;6.37;100.00;97973.41;5135477;27;20331;-52
2024/01/01 03:25:26;;;;;;;0.10;0.10;;;;;;;6.35;100.00;97993.69;5136684;27;20189;-52
2024/01/01 03:28:13;;;;;;;0.00;0.00;;;;;;;6.26;100.00;97995.13;5136807;27;20185;-52
2024/01/01 03:31:01;;;;;;;0.00;0.00;;;;;;;6.29;100.00;97992.34;5135158;27;20193;-52
2024/01/01 03:33:48;;;;;;;0.00;0.00;;;;;;;6.36;100.00;97983.06;5136408;27;20189;-52
2024/01/01 03:36:35;;;;;;;0.00;0.00;;;;;;;6.28;100.00;97993.28;5135537;27;20331;-52
2024/01/01 03:39:22;;;;;;;0.00;0.00;;;;;;;6.16;100.00;97986.16;5136486;27;20197;-52
2024/01/01 03:42:09;;;;;;;0.10;0.10;;;;;;;6.04;100.00;97982.56;5135198;27;20212;-53
2024/01/01 03:44:56;;;;;;;0.10;0.10;;;;;;;6.11;100.00;97986.47;5135275;27;20232;-52
2024/01/01 03:47:45;;;;;;;0.10;0.10;;;;;;;6.07;100.00;97992.03;5134164;27;20264;-53
2024/01/01 03:50:31;;;;;;;0.10;0.10;;;;;;;5.99;100.00;97992.53;5135109;27;20243;-52
2024/01/01 03:53:18;;;;;;;0.00;0.00;;;;;;;5.99;100.00;98001.25;5135176;27;20247;-52
2024/01/01 03:56:07;;;;;;;0.10;0.10;;;;;;;5.96;100.00;98000.59;5136111;27;20260;-53
2024/01/01 03:58:54;;;;;;;0.10;0.10;;;;;;;5.96;100.00;98016.38;5135977;27;20197;-52
2024/01/01 04:01:41;;;;;;;0.00;0.00;;;;;;;6.00;100.00;98018.72;5134732;27;20560;-53
2024/01/01 04:04:29;;;;;;;0.10;0.10;;;;;;;5.95;100.00;98025.19;5136001;27;20254;-53
2024/01/01 04:07:16;;;;;;;0.00;0.00;;;;;;;5.98;100.00;98038.13;5135703;27;20231;-53
2024/01/01 04:10:05;;;;;;;0.00;0.00;;;;;;;6.13;100.00;98026.66;5135804;27;20718;-53
2024/01/01 04:12:51;;;;;;;0.00;0.00;;;;;;;6.13;100.00;98026.66;5135873;27;20185;-52
2024/01/01 04:15:39;;;;;;;0.00;0.00;;;;;;;6.16;100.00;98036.97;5134264;27;20307;-52
2024/01/01 04:18:26;;;;;;;0.00;0.00;;;;;;;6.17;100.00;98022.88;5135805;27;20190;-53
2024/01/01 04:21:14;;;;;;;0.10;0.10;;;;;;;6.29;100.00;98016.00;5135384;27;20251;-53
2024/01/01 04:24:01;;;;;;;0.00;0.00;;;;;;;6.23;100.00;98009.34;5135504;27;20193;-52
2024/01/01 04:26:48;;;;;;;0.00;0.00;;;;;;;6.38;100.00;98006.66;5135660;27;20189;-52
2024/01/01 04:29:35;;;;;;;0.10;0.10;;;;;;;6.37;100.00;98003.19;5135476;27;20239;-52
2024/01/01 04:32:21;;;;;;;0.00;0.00;;;;;;;6.25;100.00;98004.81;5133789;27;20263;-53
2024/01/01 04:35:10;;;;;;;0.00;0.00;;;;;;;6.25;100.00;98010.06;5135329;27;20254;-53
2024/01/01 04:37:58;;;;;;;0.00;0.00;;;;;;;6.27;100.00;98010.84;5135445;27;20194;-52
2024/01/01 04:40:44;;;;;;;0.00;0.00;;;;;;;6.29;100.00;98001.06;5135185;27;20822;-52
2024/01/01 04:43:31;;;;;;;0.00;0.00;;;;;;;6.26;100.00;98003.88;5134969;27;20213;-52
2024/01/01 04:46:18;;;;;;;0.00;0.00;;;;;;;6.37;100.00;98008.47;5133799;27;20194;-53
2024/01/01 04:49:05;;;;;;;0.00;0.00;;;;;;;6.41;100.00;98011.72;5135006;27;20243;-53
2024/01/01 04:51:52;;;;;;;0.07;0.07;;;;;;;6.43;100.00;98002.78;5135116;27;20197;-53
2024/01/01 04:54:40;;;;;;;0.07;0.07;;;;;;;6.42;100.00;98003.72;5135077;27;20189;-52
2024/01/01 04:57:27;;;;;;;0.00;0.00;;;;;;;6.37;100.00;98000.56;5134886;27;20196;-52
2024/01/01 05:00:15;;;;;;;0.00;0.00;;;;;;;6.47;100.00;98004.28;5134571;27;20198;-52
2024/01/01 05:03:02;;;;;;;0.00;0.00;;;;;;;6.41;100.00;97996.78;5134697;27;20240;-53
2024/01/01 05:05:49;;;;;;;0.00;0.00;;;;;;;6.52;100.00;97985.56;5134746;27;20193;-53
2024/01/01 05:08:36;;;;;;;0.00;0.00;;;;;;;6.60;100.00;97999.88;5135012;27;20189;-52
2024/01/01 05:11:24;;;;;;;0.00;0.00;;;;;;;6.49;100.00;97991.03;5134703;27;20212;-52
2024/01/01 05:14:10;;;;;;;0.00;0.00;;;;;;;6.46;100.00;97983.31;5134519;27;20320;-53
2024/01/01 05:16:57;;;;;;;0.00;0.00;;;;;;;6.38;100.00;97981.22;5133293;27;20212;-53
2024/01/01 05:19:44;;;;;;;0.00;0.00;;;;;;;6.40;100.00;97997.72;5134376;27;20243;-52
2024/01/01 05:22:31;;;;;;;0.10;0.10;;;;;;;6.40;100.00;97992.47;5134320;27;20201;-52
2024/01/01 05:25:18;;;;;;;0.00;0.00;;;;;;;6.47;100.00;97998.19;5134101;27;20205;-52
2024/01/01 05:28:08;;;;;;;0.00;0.00;;;;;;;6.48;100.00;98007.75;5134445;27;20197;-53
2024/01/01 05:30:54;;;;;;;0.00;0.00;;;;;;;6.44;100.00;98012.34;5133106;27;20201;-52
2024/01/01 05:33:41;;;;;;;0.03;0.03;;;;;;;6.47;100.00;98004.28;5134340;27;20197;-53
2024/01/01 05:36:28;;;;;;;0.10;0.10;;;;;;;6.50;100.00;98005.84;5134298;27;20197;-52
2024/01/01 05:39:15;;;;;;;0.00;0.00;;;;;;;6.45;100.00;98008.78;5134239;27;20205;-53
2024/01/01 05:42:03;;;;;;;0.00;0.00;;;;;;;6.36;100.00;98014.63;5134181;27;20243;-52
2024/01/01 05:44:51;;;;;;;0.00;0.00;;;;;;;6.39;100.00;98018.88;5134178;27;20315;-53
2024/01/01 05:47:38;;;;;;;0.00;0.00;;;;;;;6.45;100.00;98015.81;5132738;27;20213;-53
2024/01/01 05:50:26;;;;;;;0.10;0.10;;;;;;;6.42;100.00;98022.13;5134000;27;20315;-52
2024/01/01 05:53:13;;;;;;;0.10;0.10;;;;;;;6.42;100.00;98023.91;5134161;27;20194;-53
2024/01/01 05:56:00;;;;;;;0.10;0.10;;;;;;;6.64;100.00;98028.59;5134121;27;20214;-52
2024/01/01 05:58:47;;;;;;;0.10;0.10;;;;;;;6.50;100.00;98025.09;5134108;27;20188;-52
2024/01/01 06:01:35;;;;;;;0.10;0.10;;;;;;;6.55;100.00;98023.00;5132590;28;20683;-52
2024/01/01 06:04:22;;;;;;;0.00;0.00;;;;;;;6.64;100.00;98025.97;5133680;28;20334;-53
2024/01/01 06:07:09;;;;;;;0.10;0.10;;;;;;;6.68;100.00;98015.16;5133927;28;20193;-52
2024/01/01 06:09:57;;;;;;;0.00;0.00;;;;;;;6.63;100.00;98027.75;5134079;28;20181;-53
2024/01/01 06:12:44;;;;;;;0.00;0.00;;;;;;;6.64;100.00;98024.19;5135803;27;20186;-52
2024/01/01 06:15:31;;;;;;;0.00;0.00;;;;;;;6.61;100.00;98027.03;5136839;27;20192;-53
2024/01/01 06:18:19;;;;;;;0.07;0.07;;;;;;;6.74;100.00;98022.63;5138096;27;20513;-53
2024/01/01 06:21:06;;;;;;;0.00;0.00;;;;;;;6.67;100.00;98028.41;5138062;27;20688;-53
2024/01/01 06:23:53;;;;;;;0.10;0.10;;;;;;;6.58;100.00;98030.72;5137900;27;20282;-52
2024/01/01 06:26:40;;;;;;;0.10;0.10;;;;;;;6.50;100.00;98032.16;5137939;27;20280;-52
2024/01/01 06:29:27;;;;;;;0.00;0.00;;;;;;;6.59;100.00;98039.44;5137993;27;20193;-53
2024/01/01 06:32:14;;;;;;;0.00;0.00;;;;;;;6.81;100.00;98037.06;5136614;27;20205;-53
2024/01/01 06:35:02;;;;;;;0.00;0.00;;;;;;;6.57;100.00;98042.19;5137749;27;20185;-53
2024/01/01 06:37:49;;;;;;;0.10;0.10;;;;;;;6.50;100.00;98037.41;5137732;27;20692;-53
2024/01/01 06:40:36;;;;;;;0.00;0.00;;;;;;;6.68;100.00;98053.78;5137612;27;20200;-52
2024/01/01 06:43:23;;;;;;;0.10;0.10;;;;;;;6.61;100.00;98055.97;5137573;27;20212;-52
2024/01/01 06:46:11;;;;;;;0.00;0.00;;;;;;;6.63;100.00;98061.13;5135243;27;20193;-53
2024/01/01 06:48:58;;;;;;;0.00;0.00;;;;;;;6.54;100.00;98068.66;5137560;27;20194;-53
2024/01/01 06:51:50;;;;;;;0.00;0.00;;;;;;;6.64;100.00;98068.91;5137512;27;20193;-52
2024/01/01 06:54:39;;;;;;;0.00;0.00;;;;;;;6.57;100.00;98067.66;5137437;27;20189;-53
2024/01/01 06:57:26;;;;;;;0.00;0.00;;;;;;;6.39;100.00;98076.72;5137352;27;20189;-53
2024/01/01 07:00:15;;;;;;;0.00;0.00;;;;;;;6.49;100.00;98085.72;5137253;27;20201;-53
2024/01/01 07:03:02;;;;;;;0.00;0.00;;;;;;;6.51;100.00;98084.66;5137289;27;20194;-53
2024/01/01 07:05:49;;;;;;;0.00;0.00;;;;;;;6.50;100.00;98090.03;5137075;27;20683;-53
2024/01/01 07:08:37;;;;;;;0.00;0.00;;;;;;;6.36;100.00;98098.78;5137023;27;20198;-53
2024/01/01 07:11:24;;;;;;;0.10;0.10;;;;;;;6.32;100.00;98092.88;5137081;27;20194;-53
2024/01/01 07:14:11;;;;;;;0.00;0.00;;;;;;;6.32;100.00;98092.88;5137031;27;20256;-53
2024/01/01 07:16:59;;;;;;;0.00;0.00;;;;;;;6.13;100.00;98096.78;5135602;27;20220;-53
2024/01/01 07:19:46;;;;;;;0.00;0.00;;;;;;;6.12;100.00;98102.97;5136540;27;20221;-50
2024/01/01 07:22:32;;;;;;;0.10;0.10;;;;;;;6.07;100.00;98103.25;5136615;27;20414;-50
2024/01/01 07:25:21;;;;;;;0.07;0.07;;;;;;;6.05;100.00;98104.31;5136538;27;20216;-50
2024/01/01 07:28:08;;;;;;;0.10;0.10;;;;;;;6.19;100.00;98110.38;5136857;27;20263;-50
2024/01/01 07:30:57;;;;;;;0.00;0.00;;;;;;;6.13;100.00;98102.88;5134469;27;20267;-50
2024/01/01 07:33:43;;;;;;;0.10;0.10;;;;;;;6.04;100.00;98098.19;5136457;27;20219;-51
2024/01/01 07:36:30;;;;;;;0.00;0.00;;;;;;;5.94;100.00;98103.19;5136594;27;20676;-50
2024/01/01 07:39:19;;;;;;;0.00;0.00;;;;;;;5.86;100.00;98107.19;5136532;27;20189;-50
2024/01/01 07:42:08;;;;;;;0.00;0.00;;;;;;;5.94;100.00;98116.31;5136304;27;20193;-51
2024/01/01 07:44:55;;;;;;;0.00;0.00;;;;;;;5.82;100.00;98119.69;5135952;27;20573;-51
2024/01/01 07:47:42;;;;;;;0.00;0.00;;;;;;;5.73;100.00;98117.63;5135094;27;20319;-51
2024/01/01 07:50:29;;;;;;;0.10;0.10;;;;;;;5.74;100.00;98114.06;5136252;27;20304;-51
2024/01/01 07:53:16;;;;;;;0.10;0.10;;;;;;;5.74;100.00;98133.28;5136239;27;20201;-51
2024/01/01 07:56:04;;;;;;;0.10;0.10;;;;;;;5.74;100.00;98130.66;5136092;27;20190;-51
2024/01/01 07:58:53;;;;;;;0.10;0.10;;;;;;;6.02;100.00;98137.72;5135946;27;20228;-51
2024/01/01 08:01:40;;;;;;;0.10;0.10;;;;;;;6.00;100.00;98136.13;5134084;27;20194;-50
2024/01/01 08:04:28;;;;;;;0.10;0.10;;;;;;;6.19;100.00;98133.22;5135784;27;20220;-50
2024/01/01 08:07:15;;;;;;;0.00;0.00;;;;;;;6.38;100.00;98136.38;5135891;27;20193;-51
2024/01/01 08:10:02;;;;;;;0.00;0.00;;;;;;;6.37;100.00;98137.31;5135964;27;20192;-50
2024/01/01 08:12:49;;;;;;;0.00;0.00;;;;;;;6.38;100.00;98125.84;5135912;27;20263;-51
2024/01/01 08:15:37;;;;;;;0.00;0.00;;;;;;;6.85;100.00;98130.69;5134554;27;20186;-51
2024/01/01 08:18:24;;;;;;;0.00;0.00;;;;;;;6.75;100.00;98121.66;5135779;27;20698;-50
2024/01/01 08:21:11;;;;;;;0.00;0.00;;;;;;;6.73;100.00;98127.97;5094803;28;20290;-51
2024/01/01 08:23:58;;;;;;;0.10;0.10;;;;;;;6.79;100.00;98117.91;5094473;28;20310;-51
2024/01/01 08:26:45;;;;;;;0.10;0.10;;;;;;;6.73;100.00;98120.09;5094787;28;20190;-50
2024/01/01 08:29:31;;;;;;;0.00;0.00;;;;;;;6.96;100.00;98121.22;5094517;28;20203;-50
2024/01/01 08:32:23;;;;;;;0.10;0.10;;;;;;;6.88;100.00;98129.63;5093237;28;20256;-50
2024/01/01 08:35:10;;;;;;;0.00;0.00;;;;;;;6.76;100.00;98114.66;5093053;28;20187;-50
2024/01/01 08:37:59;;;;;;;0.00;0.00;;;;;;;6.76;100.00;98112.84;5107843;28;20191;-50
2024/01/01 08:40:47;;;;;;;0.00;0.00;;;;;;;6.76;100.00;98133.06;5094300;28;20202;-51
2024/01/01 08:43:33;;;;;;;0.03;0.03;;;;;;;6.87;100.00;98134.03;5094321;28;20265;-51
2024/01/01 08:46:22;;;;;;;0.00;0.00;;;;;;;6.84;100.00;98134.22;5093173;28;20389;-50
2024/01/01 08:49:10;;;;;;;0.00;0.00;;;;;;;6.95;100.00;98151.97;5094078;28;20187;-50
2024/01/01 08:51:57;;;;;;;0.00;0.00;;;;;;;7.01;100.00;98154.19;5094221;28;20214;-50
2024/01/01 08:54:44;;;;;;;0.10;0.10;;;;;;;6.95;100.00;98157.25;5094032;28;20195;-50
2024/01/01 08:57:31;;;;;;;0.00;0.00;;;;;;;7.09;100.00;98143.16;5094169;28;20259;-51
2024/01/01 09:00:18;;;;;;;0.10;0.10;;;;;;;7.05;100.00;98155.69;5093494;28;20218;-51
2024/01/01 09:03:06;;;;;;;0.10;0.10;;;;;;;7.16;100.00;98157.63;5093970;28;20290;-50
2024/01/01 09:05:56;;;;;;;0.10;0.10;;;;;;;7.17;100.00;98157.50;5093703;28;20214;-50
2024/01/01 09:08:43;;;;;;;0.10;0.10;;;;;;;7.46;100.00;98147.66;5093881;28;20214;-50
2024/01/01 09:11:29;;;;;;;0.10;0.10;;;;;;;7.33;100.00;98154.69;5093823;28;20198;-51
2024/01/01 09:14:16;;;;;;;0.00;0.00;;;;;;;7.56;100.00;98144.41;5093778;28;20677;-51
2024/01/01 09:17:07;;;;;;;0.10;0.10;;;;;;;7.51;100.00;98159.66;5105828;28;20203;-51
2024/01/01 09:19:54;;;;;;;0.10;0.10;;;;;;;7.62;100.00;98154.50;5114684;27;20232;-51
2024/01/01 09:22:43;;;;;;;0.10;0.10;;;;;;;7.68;100.00;98159.38;5134600;27;20259;-51
2024/01/01 09:25:30;;;;;;;0.10;0.10;;;;;;;7.41;100.00;98160.28;5134208;27;20281;-51
2024/01/01 09:28:16;;;;;;;0.00;0.00;;;;;;;7.47;100.00;98156.41;5134306;27;20197;-51
2024/01/01 09:31:03;;;;;;;0.10;0.10;;;;;;;7.67;100.00;98160.31;5131904;27;20671;-50
2024/01/01 09:33:50;;;;;;;0.00;0.00;;;;;;;7.43;100.00;98161.03;5134389;27;20239;-51
2024/01/01 09:36:37;;;;;;;0.10;0.10;;;;;;;7.67;100.00;98168.22;5134308;27;20193;-51
2024/01/01 09:39:40;;;;;;;0.10;0.10;;;;;;;7.56;100.00;98165.47;5134227;27;20357;-51
2024/01/01 09:42:26;;;;;;;0.00;0.00;;;;;;;7.80;100.00;98165.59;5134229;27;20728;-50
2024/01/01 09:45:13;;;;;;;0.00;0.00;;;;;;;7.69;100.00;98169.78;5138748;27;20327;-51
2024/01/01 09:48:00;;;;;;;0.03;0.03;;;;;;;7.49;100.00;98159.78;5153529;27;20201;-50
2024/01/01 09:50:49;;;;;;;0.10;0.10;;;;;;;7.42;100.00;98164.59;5153827;27;20196;-51
2024/01/01 09:53:40;;;;;;;0.00;0.00;;;;;;;7.53;100.00;98158.63;5152473;27;20196;-50
2024/01/01 09:56:28;;;;;;;0.10;0.10;;;;;;;7.49;100.00;98170.31;5153694;27;20185;-51
2024/01/01 09:59:34;;;;;;;0.03;0.03;;;;;;;7.42;100.00;98169.88;5152743;27;20204;-50
2024/01/01 10:02:24;;;;;;;0.10;0.10;;;;;;;7.55;100.00;98159.38;5152621;27;20243;-51
2024/01/01 10:05:15;;;;;;;0.00;0.00;;;;;;;7.41;100.00;98159.44;5154401;27;20220;-51
2024/01/01 10:08:09;;;;;;;0.00;0.00;;;;;;;7.40;100.00;98165.66;5154538;27;20274;-50
2024/01/01 10:10:56;;;;;;;0.10;0.10;;;;;;;7.34;100.00;98164.28;5154383;27;20566;-51
2024/01/01 10:13:44;;;;;;;0.10;0.10;;;;;;;7.31;100.00;98166.28;5154076;27;20196;-51
2024/01/01 10:16:31;;;;;;;0.10;0.10;;;;;;;7.37;100.00;98165.88;5152975;27;20192;-51
2024/01/01 10:19:18;;;;;;;0.00;0.00;;;;;;;7.31;100.00;98175.00;5154353;27;20228;-50
2024/01/01 10:22:13;;;;;;;0.00;0.00;;;;;;;7.30;100.00;98168.06;5154577;27;20189;-50
2024/01/01 10:25:11;;;;;;;0.07;0.07;;;;;;;7.29;100.00;98173.44;5154211;27;20709;-51
2024/01/01 10:28:02;;;;;;;0.00;0.00;;;;;;;7.30;100.00;98168.06;5154613;27;20185;-50
2024/01/01 10:30:51;;;;;;;0.00;0.00;;;;;;;7.40;100.00;98168.28;5153145;27;20189;-50
2024/01/01 10:33:39;;;;;;;0.10;0.10;;;;;;;7.41;100.00;98164.69;5154459;27;20588;-51
2024/01/01 10:36:26;;;;;;;0.10;0.10;;;;;;;7.36;100.00;98170.28;5154383;27;20188;-51
2024/01/01 10:39:15;;;;;;;0.00;0.00;;;;;;;7.41;100.00;98173.44;5154477;27;20197;-51
2024/01/01 10:42:04;;;;;;;0.00;0.00;;;;;;;7.37;100.00;98185.16;5154377;27;20295;-50
2024/01/01 10:44:51;;;;;;;0.03;0.03;;;;;;;7.36;100.00;98180.00;5154100;27;20193;-51
2024/01/01 10:47:39;;;;;;;0.00;0.00;;;;;;;7.50;100.00;98173.78;5152830;27;20208;-50
2024/01/01 10:50:31;;;;;;;0.00;0.00;;;;;;;7.38;100.00;98181.56;5154265;27;20238;-51
2024/01/01 10:53:28;;;;;;;0.03;0.03;;;;;;;7.34;100.00;98181.88;5154454;27;20196;-51
2024/01/01 10:56:26;;;;;;;0.10;0.10;;;;;;;7.35;100.00;98191.47;5154029;27;20185;-51
2024/01/01 10:59:19;;;;;;;0.10;0.10;;;;;;;7.26;100.00;98187.66;5157758;27;20222;-51
2024/01/01 11:02:07;;;;;;;0.10;0.10;;;;;;;7.27;100.00;98191.97;5156746;27;20197;-52
2024/01/01 11:05:07;;;;;;;0.10;0.10;;;;;;;7.40;100.00;98200.75;5157215;27;20201;-51
2024/01/01 11:07:59;;;;;;;0.10;0.10;;;;;;;7.34;100.00;98198.53;5158015;27;20189;-51
2024/01/01 11:10:49;;;;;;;0.10;0.10;;;;;;;7.41;100.00;98194.53;5157700;27;20193;-51
2024/01/01 11:13:55;;;;;;;0.10;0.10;;;;;;;7.44;100.00;98204.03;5157778;27;20267;-51
2024/01/01 11:16:50;;;;;;;0.00;0.00;;;;;;;7.39;100.00;98206.13;5156393;27;20192;-51
2024/01/01 11:19:48;;;;;;;0.10;0.10;;;;;;;7.38;100.00;98204.44;5157370;27;20285;-51
2024/01/01 11:22:42;;;;;;;0.00;0.00;;;;;;;7.41;100.00;98205.06;5157615;27;20201;-52
2024/01/01 11:25:31;;;;;;;0.10;0.10;;;;;;;7.56;100.00;98205.00;5157187;27;20222;-51
2024/01/01 11:28:39;;;;;;;0.00;0.00;;;;;;;7.54;100.00;98207.75;5155501;27;20212;-51
2024/01/01 11:31:27;;;;;;;0.10;0.10;;;;;;;7.65;100.00;98202.59;5155108;27;20189;-51
2024/01/01 11:34:16;;;;;;;0.00;0.00;;;;;;;7.80;100.00;98198.06;5156395;27;20712;-51
2024/01/01 11:37:20;;;;;;;0.00;0.00;;;;;;;7.84;100.00;98194.28;5143813;27;20200;-51
2024/01/01 11:40:10;;;;;;;0.00;0.00;;;;;;;7.90;100.00;98182.44;5134319;27;20193;-51
2024/01/01 11:43:06;;;;;;;0.10;0.10;;;;;;;7.94;100.00;98187.44;5135883;27;20197;-51
2024/01/01 11:45:55;;;;;;;0.10;0.10;;;;;;;7.90;100.00;98195.63;5133502;27;20711;-50
2024/01/01 11:48:58;;;;;;;0.00;0.00;;;;;;;7.84;100.00;98196.91;5135565;27;20540;-50
2024/01/01 11:51:50;;;;;;;0.10;0.10;;;;;;;7.93;100.00;98193.66;5135059;27;20272;-50
2024/01/01 11:54:38;;;;;;;0.00;0.00;;;;;;;7.90;100.00;98204.38;5135323;27;20197;-51
2024/01/01 11:57:26;;;;;;;0.10;0.10;;;;;;;7.87;100.00;98201.13;5135372;27;20243;-51
2024/01/01 12:00:15;;;;;;;0.00;0.00;;;;;;;7.96;100.00;98203.97;5134582;27;20194;-51
2024/01/01 12:03:03;;;;;;;0.00;0.00;;;;;;;7.98;100.00;98202.06;5135101;27;20201;-51
2024/01/01 12:05:50;;;;;;;0.00;0.00;;;;;;;7.93;100.00;98192.81;5134816;27;20294;-52
2024/01/01 12:08:37;;;;;;;0.00;0.00;;;;;;;7.99;100.00;98203.75;5134832;27;20193;-51
2024/01/01 12:11:24;;;;;;;0.00;0.00;;;;;;;7.98;100.00;98194.16;5134852;27;20200;-51
2024/01/01 12:14:13;;;;;;;0.00;0.00;;;;;;;7.96;100.00;98189.94;5134807;27;20201;-51
2024/01/01 12:16:59;;;;;;;0.00;0.00;;;;;;;7.91;100.00;98194.69;5133841;27;20190;-51
2024/01/01 12:19:46;;;;;;;0.00;0.00;;;;;;;7.89;100.00;98186.03;5134598;27;20232;-51
2024/01/01 12:22:33;;;;;;;0.00;0.00;;;;;;;7.86;100.00;98194.16;5134606;27;20201;-51
2024/01/01 12:25:23;;;;;;;0.03;0.03;;;;;;;7.88;100.00;98198.38;5134921;27;20204;-51
2024/01/01 12:28:10;;;;;;;0.00;0.00;;;;;;;7.85;100.00;98201.22;5134064;27;20185;-51
2024/01/01 12:31:01;;;;;;;0.00;0.00;;;;;;;7.78;100.00;98213.13;5133214;27;20201;-51
2024/01/01 12:33:50;;;;;;;0.00;0.00;;;;;;;7.66;100.00;98213.97;5133631;27;20205;-51
2024/01/01 12:36:37;;;;;;;0.00;0.00;;;;;;;7.61;100.00;98221.31;5134262;27;20190;-51
2024/01/01 12:39:25;;;;;;;0.10;0.10;;;;;;;7.53;100.00;98221.88;5134546;27;20282;-51
2024/01/01 12:42:12;;;;;;;0.00;0.00;;;;;;;7.53;100.00;98224.50;5134386;27;20197;-51
2024/01/01 12:44:59;;;;;;;0.00;0.00;;;;;;;7.56;100.00;98228.72;5134060;27;20251;-51
2024/01/01 12:47:47;;;;;;;0.10;0.10;;;;;;;7.57;100.00;98220.69;5134047;27;20217;-51
2024/01/01 12:50:34;;;;;;;0.10;0.10;;;;;;;7.59;100.00;98231.13;5134278;27;20193;-51
2024/01/01 12:53:21;;;;;;;0.00;0.00;;;;;;;7.64;100.00;98229.91;5135103;27;20193;-51
2024/01/01 12:56:08;;;;;;;0.00;0.00;;;;;;;7.71;100.00;98219.75;5134943;27;20189;-51
2024/01/01 12:58:55;;;;;;;0.00;0.00;;;;;;;7.74;100.00;98225.69;5135033;27;20213;-51
2024/01/01 13:01:43;;;;;;;0.00;0.00;;;;;;;7.72;100.00;98230.22;5133655;27;20185;-51
2024/01/01 13:04:31;;;;;;;0.10;0.10;;;;;;;7.65;100.00;98209.66;5134932;27;20189;-51
2024/01/01 13:07:18;;;;;;;0.07;0.07;;;;;;;7.90;100.00;98219.34;5134481;27;20218;-51
2024/01/01 13:10:05;;;;;;;0.10;0.10;;;;;;;7.89;100.00;98215.03;5134718;27;20648;-51
2024/01/01 13:12:53;;;;;;;0.00;0.00;;;;;;;8.03;100.00;98213.16;5154679;27;20185;-51